createdAt,value
2022-08-11T00:07:47.873Z,49.31
2022-08-11T00:29:34.304Z,49.96
2022-08-11T00:52:03.774Z,50.85
2022-08-11T01:14:34.699Z,52.37
2022-08-11T01:36:56.804Z,54.65
2022-08-11T01:58:49.996Z,55.85
2022-08-11T02:20:56.470Z,66.76
2022-08-11T02:42:57.528Z,46.54
2022-08-11T03:04:56.909Z,50.71
2022-08-11T03:26:55.149Z,62.47
2022-08-11T03:48:55.990Z,48.06
2022-08-11T04:11:01.143Z,52.98
2022-08-11T04:33:13.189Z,64.91
2022-08-11T04:55:34.763Z,48.30
2022-08-11T05:17:53.410Z,52.83
2022-08-11T05:40:07.340Z,61.31
2022-08-11T06:01:53.931Z,45.87
2022-08-11T06:23:42.792Z,47.75
2022-08-11T06:45:32.396Z,49.14
2022-08-11T07:08:34.114Z,49.92
2022-08-11T07:30:21.660Z,49.72
2022-08-11T07:52:25.890Z,49.50
2022-08-11T08:14:30.133Z,46.69
2022-08-11T08:36:16.403Z,34.96
2022-08-11T08:58:03.637Z,27.21
2022-08-11T09:19:58.887Z,20.26
2022-08-11T09:42:01.785Z,20.47
2022-08-11T10:03:49.692Z,23.53
2022-08-11T10:25:53.559Z,24.72
2022-08-11T10:47:47.758Z,24.10
2022-08-11T11:09:41.672Z,24.14
2022-08-11T11:31:35.497Z,19.14
2022-08-11T11:53:21.609Z,15.53
2022-08-11T12:15:10.546Z,12.50
2022-08-11T12:36:59.677Z,11.46
2022-08-11T12:58:46.756Z,12.35
2022-08-11T13:20:36.481Z,11.86
2022-08-11T13:42:23.345Z,10.74
2022-08-11T14:04:29.101Z,11.22
2022-08-11T14:26:27.902Z,11.09
2022-08-11T14:48:14.143Z,11.34
2022-08-11T15:10:16.533Z,12.68
2022-08-11T15:32:20.475Z,14.73
2022-08-11T15:54:09.715Z,16.31
2022-08-11T16:16:13.553Z,17.88
2022-08-11T16:38:18.406Z,19.07
2022-08-11T17:00:06.938Z,21.13
2022-08-11T17:22:12.296Z,23.59
2022-08-11T17:44:17.024Z,27.42
2022-08-11T18:06:04.619Z,29.80
2022-08-11T18:28:11.582Z,32.07
2022-08-11T18:50:21.039Z,33.69
2022-08-11T19:12:39.161Z,35.08
2022-08-11T19:34:45.454Z,36.35
2022-08-11T19:56:50.566Z,37.29
2022-08-11T20:18:57.702Z,38.75
2022-08-11T20:41:01.538Z,40.44
2022-08-11T21:03:06.432Z,42.47
2022-08-11T21:25:11.633Z,44.08
2022-08-11T21:47:21.047Z,46.33
2022-08-11T22:09:40.628Z,47.98
2022-08-11T22:31:44.659Z,49.78
2022-08-11T22:53:57.164Z,51.39
2022-08-11T23:16:03.188Z,52.92
2022-08-11T23:38:06.533Z,61.80
